Terminal Aerodrome Forecast
Issued by NWS

Home | Current Version | Previous Version | Text Only | Print | Product List | Glossary On
Versions: 1 2 3 4 5 6 7 8 9 10 11 12
059
FTUS42 KGSP 261120
TAFAND
TAF
KAND 261120Z 2612/2712 23003KT P6SM SCT060 BKN120
     FM261600 24006KT P6SM BKN060 PROB30 2622/2701 4SM -TSRA
      OVC040CB
     FM270200 00000KT P6SM BKN060
     FM271100 00000KT P6SM SCT060 BKN120=

USA.gov is the U.S. government's official web portal to all federal, state and local government web resources and services.